sensor_id;sensor_type;location;lat;lon;timestamp;temperature;humidity
46335;DHT22;32051;48.882;9.210;2022-11-15T00:00:15;10.60;99.90
46335;DHT22;32051;48.882;9.210;2022-11-15T00:02:59;10.60;99.90
46335;DHT22;32051;48.882;9.210;2022-11-15T00:05:44;10.60;99.90
46335;DHT22;32051;48.882;9.210;2022-11-15T00:08:32;10.60;99.90
46335;DHT22;32051;48.882;9.210;2022-11-15T00:11:17;10.60;99.90
46335;DHT22;32051;48.882;9.210;2022-11-15T00:14:01;10.60;99.90
46335;DHT22;32051;48.882;9.210;2022-11-15T00:16:48;10.60;99.90
46335;DHT22;32051;48.882;9.210;2022-11-15T00:19:32;10.60;99.90
46335;DHT22;32051;48.882;9.210;2022-11-15T00:22:17;10.60;99.90
46335;DHT22;32051;48.882;9.210;2022-11-15T00:25:01;10.60;99.90
46335;DHT22;32051;48.882;9.210;2022-11-15T00:27:45;10.60;99.90
46335;DHT22;32051;48.882;9.210;2022-11-15T00:30:29;10.60;99.90
46335;DHT22;32051;48.882;9.210;2022-11-15T00:33:13;10.60;99.90
46335;DHT22;32051;48.882;9.210;2022-11-15T00:36:05;10.60;99.90
46335;DHT22;32051;48.882;9.210;2022-11-15T00:38:50;10.60;99.90
46335;DHT22;32051;48.882;9.210;2022-11-15T00:41:34;10.60;99.90
46335;DHT22;32051;48.882;9.210;2022-11-15T00:44:18;10.60;99.90
46335;DHT22;32051;48.882;9.210;2022-11-15T00:47:02;10.50;99.90
46335;DHT22;32051;48.882;9.210;2022-11-15T00:49:46;10.50;99.90
46335;DHT22;32051;48.882;9.210;2022-11-15T00:52:30;10.50;99.90
46335;DHT22;32051;48.882;9.210;2022-11-15T00:55:18;10.50;99.90
46335;DHT22;32051;48.882;9.210;2022-11-15T00:58:03;10.50;99.90
46335;DHT22;32051;48.882;9.210;2022-11-15T01:00:47;10.50;99.90
46335;DHT22;32051;48.882;9.210;2022-11-15T01:03:33;10.50;99.90
46335;DHT22;32051;48.882;9.210;2022-11-15T01:06:17;10.50;99.90
46335;DHT22;32051;48.882;9.210;2022-11-15T01:09:01;10.40;99.90
46335;DHT22;32051;48.882;9.210;2022-11-15T01:11:45;10.40;99.90
46335;DHT22;32051;48.882;9.210;2022-11-15T01:14:29;10.30;99.90
46335;DHT22;32051;48.882;9.210;2022-11-15T01:17:13;10.30;99.90
46335;DHT22;32051;48.882;9.210;2022-11-15T01:19:57;10.30;99.90
46335;DHT22;32051;48.882;9.210;2022-11-15T01:22:41;10.20;99.90
46335;DHT22;32051;48.882;9.210;2022-11-15T01:25:25;10.20;99.90
46335;DHT22;32051;48.882;9.210;2022-11-15T01:28:09;10.10;99.90
46335;DHT22;32051;48.882;9.210;2022-11-15T01:30:53;10.00;99.90
46335;DHT22;32051;48.882;9.210;2022-11-15T01:33:37;10.00;99.90
46335;DHT22;32051;48.882;9.210;2022-11-15T01:36:22;9.90;99.90
46335;DHT22;32051;48.882;9.210;2022-11-15T01:39:07;9.90;99.90
46335;DHT22;32051;48.882;9.210;2022-11-15T01:41:52;9.80;99.90
46335;DHT22;32051;48.882;9.210;2022-11-15T01:44:50;9.80;99.90
46335;DHT22;32051;48.882;9.210;2022-11-15T01:50:28;9.70;99.90
46335;DHT22;32051;48.882;9.210;2022-11-15T01:53:14;9.70;99.90
46335;DHT22;32051;48.882;9.210;2022-11-15T01:56:05;9.70;99.90
46335;DHT22;32051;48.882;9.210;2022-11-15T01:58:51;9.70;99.90
46335;DHT22;32051;48.882;9.210;2022-11-15T02:01:36;9.60;99.90
46335;DHT22;32051;48.882;9.210;2022-11-15T02:04:26;9.60;99.90
46335;DHT22;32051;48.882;9.210;2022-11-15T02:07:14;9.70;99.90
46335;DHT22;32051;48.882;9.210;2022-11-15T02:10:03;9.70;99.90
46335;DHT22;32051;48.882;9.210;2022-11-15T02:12:49;9.80;99.90
46335;DHT22;32051;48.882;9.210;2022-11-15T02:15:39;9.80;99.90
46335;DHT22;32051;48.882;9.210;2022-11-15T02:18:26;9.80;99.90
46335;DHT22;32051;48.882;9.210;2022-11-15T02:21:24;9.90;99.90
46335;DHT22;32051;48.882;9.210;2022-11-15T02:30:33;10.00;99.90
46335;DHT22;32051;48.882;9.210;2022-11-15T02:39:28;10.10;99.90
46335;DHT22;32051;48.882;9.210;2022-11-15T02:42:26;10.20;99.90
46335;DHT22;32051;48.882;9.210;2022-11-15T02:45:35;10.20;99.90
46335;DHT22;32051;48.882;9.210;2022-11-15T02:48:21;10.30;99.90
46335;DHT22;32051;48.882;9.210;2022-11-15T02:51:06;10.30;99.90
46335;DHT22;32051;48.882;9.210;2022-11-15T02:53:50;10.40;99.90
46335;DHT22;32051;48.882;9.210;2022-11-15T02:56:34;10.30;99.90
46335;DHT22;32051;48.882;9.210;2022-11-15T03:02:39;10.40;99.90
46335;DHT22;32051;48.882;9.210;2022-11-15T03:05:35;10.40;99.90
46335;DHT22;32051;48.882;9.210;2022-11-15T03:08:45;10.30;99.90
46335;DHT22;32051;48.882;9.210;2022-11-15T03:11:38;10.30;99.90
46335;DHT22;32051;48.882;9.210;2022-11-15T03:14:25;10.20;99.90
46335;DHT22;32051;48.882;9.210;2022-11-15T03:17:22;10.20;99.90
46335;DHT22;32051;48.882;9.210;2022-11-15T03:20:07;10.10;99.90
46335;DHT22;32051;48.882;9.210;2022-11-15T03:22:55;10.10;99.90
46335;DHT22;32051;48.882;9.210;2022-11-15T03:25:45;10.00;99.90
46335;DHT22;32051;48.882;9.210;2022-11-15T03:28:37;9.90;99.90
46335;DHT22;32051;48.882;9.210;2022-11-15T03:31:25;9.70;99.90
46335;DHT22;32051;48.882;9.210;2022-11-15T03:34:37;9.60;99.90
46335;DHT22;32051;48.882;9.210;2022-11-15T03:40:34;9.30;99.90
46335;DHT22;32051;48.882;9.210;2022-11-15T03:46:40;9.10;99.90
46335;DHT22;32051;48.882;9.210;2022-11-15T03:49:35;9.10;99.90
46335;DHT22;32051;48.882;9.210;2022-11-15T03:52:21;9.00;99.90
46335;DHT22;32051;48.882;9.210;2022-11-15T03:55:08;8.80;99.90
46335;DHT22;32051;48.882;9.210;2022-11-15T03:57:56;9.00;99.90
46335;DHT22;32051;48.882;9.210;2022-11-15T04:00:42;9.00;99.90
46335;DHT22;32051;48.882;9.210;2022-11-15T04:03:26;9.00;99.90
46335;DHT22;32051;48.882;9.210;2022-11-15T04:06:10;9.00;99.90
46335;DHT22;32051;48.882;9.210;2022-11-15T04:08:54;9.00;99.90
46335;DHT22;32051;48.882;9.210;2022-11-15T04:11:38;9.00;99.90
46335;DHT22;32051;48.882;9.210;2022-11-15T04:14:22;9.00;99.90
46335;DHT22;32051;48.882;9.210;2022-11-15T04:17:06;9.00;99.90
46335;DHT22;32051;48.882;9.210;2022-11-15T04:19:51;9.00;99.90
46335;DHT22;32051;48.882;9.210;2022-11-15T04:22:58;9.00;99.90
46335;DHT22;32051;48.882;9.210;2022-11-15T04:26:03;9.00;99.90
46335;DHT22;32051;48.882;9.210;2022-11-15T04:28:48;9.00;99.90
46335;DHT22;32051;48.882;9.210;2022-11-15T04:31:51;9.00;99.90
46335;DHT22;32051;48.882;9.210;2022-11-15T04:34:35;9.10;99.90
46335;DHT22;32051;48.882;9.210;2022-11-15T04:37:19;9.00;99.90
46335;DHT22;32051;48.882;9.210;2022-11-15T04:40:03;9.10;99.90
46335;DHT22;32051;48.882;9.210;2022-11-15T04:42:47;9.00;99.90
46335;DHT22;32051;48.882;9.210;2022-11-15T04:45:31;9.00;99.90
46335;DHT22;32051;48.882;9.210;2022-11-15T04:48:15;9.00;99.90
46335;DHT22;32051;48.882;9.210;2022-11-15T04:50:59;9.00;99.90
46335;DHT22;32051;48.882;9.210;2022-11-15T04:53:43;9.00;99.90
46335;DHT22;32051;48.882;9.210;2022-11-15T04:56:27;9.00;99.90
46335;DHT22;32051;48.882;9.210;2022-11-15T04:59:11;9.00;99.90
46335;DHT22;32051;48.882;9.210;2022-11-15T05:01:55;9.00;99.90
46335;DHT22;32051;48.882;9.210;2022-11-15T05:04:39;8.90;99.90
46335;DHT22;32051;48.882;9.210;2022-11-15T05:07:24;8.90;99.90
46335;DHT22;32051;48.882;9.210;2022-11-15T05:10:08;8.90;99.90
46335;DHT22;32051;48.882;9.210;2022-11-15T05:12:53;8.80;99.90
46335;DHT22;32051;48.882;9.210;2022-11-15T05:15:37;8.80;99.90
46335;DHT22;32051;48.882;9.210;2022-11-15T05:18:21;8.70;99.90
46335;DHT22;32051;48.882;9.210;2022-11-15T05:21:06;8.70;99.90
46335;DHT22;32051;48.882;9.210;2022-11-15T05:23:51;8.60;99.90
46335;DHT22;32051;48.882;9.210;2022-11-15T05:29:19;8.60;99.90
46335;DHT22;32051;48.882;9.210;2022-11-15T05:32:05;8.60;99.90
46335;DHT22;32051;48.882;9.210;2022-11-15T05:34:49;8.50;99.90
46335;DHT22;32051;48.882;9.210;2022-11-15T05:37:34;8.50;99.90
46335;DHT22;32051;48.882;9.210;2022-11-15T05:40:18;8.50;99.90
46335;DHT22;32051;48.882;9.210;2022-11-15T05:43:03;8.50;99.90
46335;DHT22;32051;48.882;9.210;2022-11-15T05:45:48;8.50;99.90
46335;DHT22;32051;48.882;9.210;2022-11-15T05:48:34;8.40;99.90
46335;DHT22;32051;48.882;9.210;2022-11-15T05:51:20;8.40;99.90
46335;DHT22;32051;48.882;9.210;2022-11-15T05:54:05;8.40;99.90
46335;DHT22;32051;48.882;9.210;2022-11-15T05:59:35;8.40;99.90
46335;DHT22;32051;48.882;9.210;2022-11-15T06:02:19;8.40;99.90
46335;DHT22;32051;48.882;9.210;2022-11-15T06:05:03;8.40;99.90
46335;DHT22;32051;48.882;9.210;2022-11-15T06:07:48;8.30;99.90
46335;DHT22;32051;48.882;9.210;2022-11-15T06:10:32;8.20;99.90
46335;DHT22;32051;48.882;9.210;2022-11-15T06:13:17;8.30;99.90
46335;DHT22;32051;48.882;9.210;2022-11-15T06:16:01;8.30;99.90
46335;DHT22;32051;48.882;9.210;2022-11-15T06:18:45;8.30;99.90
46335;DHT22;32051;48.882;9.210;2022-11-15T06:21:29;8.40;99.90
46335;DHT22;32051;48.882;9.210;2022-11-15T06:24:13;8.40;99.90
46335;DHT22;32051;48.882;9.210;2022-11-15T06:26:57;8.40;99.90
46335;DHT22;32051;48.882;9.210;2022-11-15T06:29:41;8.40;99.90
46335;DHT22;32051;48.882;9.210;2022-11-15T06:32:26;8.40;99.90
46335;DHT22;32051;48.882;9.210;2022-11-15T06:35:10;8.40;99.90
46335;DHT22;32051;48.882;9.210;2022-11-15T06:37:55;8.40;99.90
46335;DHT22;32051;48.882;9.210;2022-11-15T06:40:39;8.40;99.90
46335;DHT22;32051;48.882;9.210;2022-11-15T06:43:23;8.40;99.90
46335;DHT22;32051;48.882;9.210;2022-11-15T06:46:07;8.40;99.90
46335;DHT22;32051;48.882;9.210;2022-11-15T06:48:53;8.50;99.90
46335;DHT22;32051;48.882;9.210;2022-11-15T06:51:38;8.50;99.90
46335;DHT22;32051;48.882;9.210;2022-11-15T06:54:22;8.50;99.90
46335;DHT22;32051;48.882;9.210;2022-11-15T06:57:06;8.50;99.90
46335;DHT22;32051;48.882;9.210;2022-11-15T06:59:50;8.60;99.90
46335;DHT22;32051;48.882;9.210;2022-11-15T07:02:34;8.60;99.90
46335;DHT22;32051;48.882;9.210;2022-11-15T07:05:18;8.70;99.90
46335;DHT22;32051;48.882;9.210;2022-11-15T07:08:03;8.70;99.90
46335;DHT22;32051;48.882;9.210;2022-11-15T07:10:47;8.80;99.90
46335;DHT22;32051;48.882;9.210;2022-11-15T07:13:32;8.80;99.90
46335;DHT22;32051;48.882;9.210;2022-11-15T07:16:19;8.90;99.90
46335;DHT22;32051;48.882;9.210;2022-11-15T07:19:03;8.90;99.90
46335;DHT22;32051;48.882;9.210;2022-11-15T07:21:47;9.00;99.90
46335;DHT22;32051;48.882;9.210;2022-11-15T07:24:31;9.00;99.90
46335;DHT22;32051;48.882;9.210;2022-11-15T07:27:15;9.00;99.90
46335;DHT22;32051;48.882;9.210;2022-11-15T07:29:59;9.10;99.90
46335;DHT22;32051;48.882;9.210;2022-11-15T07:32:43;9.10;99.90
46335;DHT22;32051;48.882;9.210;2022-11-15T07:35:28;9.20;99.90
46335;DHT22;32051;48.882;9.210;2022-11-15T07:38:13;9.30;99.90
46335;DHT22;32051;48.882;9.210;2022-11-15T07:41:03;9.40;99.90
46335;DHT22;32051;48.882;9.210;2022-11-15T07:43:51;9.50;99.90
46335;DHT22;32051;48.882;9.210;2022-11-15T07:46:35;9.60;99.90
46335;DHT22;32051;48.882;9.210;2022-11-15T07:49:19;9.70;99.90
46335;DHT22;32051;48.882;9.210;2022-11-15T07:52:03;9.80;99.90
46335;DHT22;32051;48.882;9.210;2022-11-15T07:54:47;9.90;99.90
46335;DHT22;32051;48.882;9.210;2022-11-15T07:57:31;9.90;99.90
46335;DHT22;32051;48.882;9.210;2022-11-15T08:00:16;10.00;99.90
46335;DHT22;32051;48.882;9.210;2022-11-15T08:03:09;10.00;99.90
46335;DHT22;32051;48.882;9.210;2022-11-15T08:05:54;10.10;99.90
46335;DHT22;32051;48.882;9.210;2022-11-15T08:08:38;10.10;99.90
46335;DHT22;32051;48.882;9.210;2022-11-15T08:11:22;10.20;99.90
46335;DHT22;32051;48.882;9.210;2022-11-15T08:14:06;10.30;99.90
46335;DHT22;32051;48.882;9.210;2022-11-15T08:16:50;10.40;99.90
46335;DHT22;32051;48.882;9.210;2022-11-15T08:19:34;10.50;99.90
46335;DHT22;32051;48.882;9.210;2022-11-15T08:22:18;10.50;99.90
46335;DHT22;32051;48.882;9.210;2022-11-15T08:25:02;10.60;99.90
46335;DHT22;32051;48.882;9.210;2022-11-15T08:27:47;10.70;99.90
46335;DHT22;32051;48.882;9.210;2022-11-15T08:30:38;10.70;99.90
46335;DHT22;32051;48.882;9.210;2022-11-15T08:33:25;10.80;99.90
46335;DHT22;32051;48.882;9.210;2022-11-15T08:36:13;10.80;99.90
46335;DHT22;32051;48.882;9.210;2022-11-15T08:38:58;10.90;99.90
46335;DHT22;32051;48.882;9.210;2022-11-15T08:41:42;11.00;99.90
46335;DHT22;32051;48.882;9.210;2022-11-15T08:44:27;11.10;99.90
46335;DHT22;32051;48.882;9.210;2022-11-15T08:49:57;11.40;99.90
46335;DHT22;32051;48.882;9.210;2022-11-15T08:52:41;11.50;99.90
46335;DHT22;32051;48.882;9.210;2022-11-15T08:55:25;11.60;99.90
46335;DHT22;32051;48.882;9.210;2022-11-15T08:58:09;11.80;99.90
46335;DHT22;32051;48.882;9.210;2022-11-15T09:00:54;12.00;99.90
46335;DHT22;32051;48.882;9.210;2022-11-15T09:03:40;12.10;99.90
46335;DHT22;32051;48.882;9.210;2022-11-15T09:06:24;12.20;99.90
46335;DHT22;32051;48.882;9.210;2022-11-15T09:09:08;12.30;99.90
46335;DHT22;32051;48.882;9.210;2022-11-15T09:11:52;12.50;99.90
46335;DHT22;32051;48.882;9.210;2022-11-15T09:14:36;12.50;99.90
46335;DHT22;32051;48.882;9.210;2022-11-15T09:17:20;12.50;99.90
46335;DHT22;32051;48.882;9.210;2022-11-15T09:20:05;12.60;99.90
46335;DHT22;32051;48.882;9.210;2022-11-15T09:22:49;12.70;99.90
46335;DHT22;32051;48.882;9.210;2022-11-15T09:25:34;12.70;99.90
46335;DHT22;32051;48.882;9.210;2022-11-15T09:28:18;12.80;99.90
46335;DHT22;32051;48.882;9.210;2022-11-15T09:31:04;12.80;99.90
46335;DHT22;32051;48.882;9.210;2022-11-15T09:33:48;12.90;99.90
46335;DHT22;32051;48.882;9.210;2022-11-15T09:36:32;13.00;99.90
46335;DHT22;32051;48.882;9.210;2022-11-15T09:39:16;13.10;99.90
46335;DHT22;32051;48.882;9.210;2022-11-15T09:45:23;13.40;99.90
46335;DHT22;32051;48.882;9.210;2022-11-15T10:01:36;14.30;99.90
46335;DHT22;32051;48.882;9.210;2022-11-15T10:04:04;14.40;99.90
46335;DHT22;32051;48.882;9.210;2022-11-15T10:06:31;14.50;99.90
46335;DHT22;32051;48.882;9.210;2022-11-15T10:11:32;14.60;99.90
46335;DHT22;32051;48.882;9.210;2022-11-15T10:14:15;14.60;99.90
46335;DHT22;32051;48.882;9.210;2022-11-15T10:16:50;14.60;99.90
46335;DHT22;32051;48.882;9.210;2022-11-15T10:19:40;14.60;99.90
46335;DHT22;32051;48.882;9.210;2022-11-15T10:22:41;14.50;99.90
46335;DHT22;32051;48.882;9.210;2022-11-15T10:27:40;14.40;99.90
46335;DHT22;32051;48.882;9.210;2022-11-15T10:30:18;14.30;99.90
46335;DHT22;32051;48.882;9.210;2022-11-15T10:32:45;14.30;99.90
46335;DHT22;32051;48.882;9.210;2022-11-15T10:35:28;14.30;99.90
46335;DHT22;32051;48.882;9.210;2022-11-15T10:38:08;14.30;99.90
46335;DHT22;32051;48.882;9.210;2022-11-15T10:40:34;14.20;99.90
46335;DHT22;32051;48.882;9.210;2022-11-15T10:43:19;14.20;99.90
46335;DHT22;32051;48.882;9.210;2022-11-15T10:45:46;14.20;99.90
46335;DHT22;32051;48.882;9.210;2022-11-15T10:50:38;14.20;99.90
46335;DHT22;32051;48.882;9.210;2022-11-15T10:53:33;14.20;99.90
46335;DHT22;32051;48.882;9.210;2022-11-15T10:56:06;14.10;99.90
46335;DHT22;32051;48.882;9.210;2022-11-15T10:58:42;14.10;99.90
46335;DHT22;32051;48.882;9.210;2022-11-15T11:01:17;14.10;99.90
46335;DHT22;32051;48.882;9.210;2022-11-15T11:03:45;14.00;99.90
46335;DHT22;32051;48.882;9.210;2022-11-15T11:06:22;14.00;99.90
46335;DHT22;32051;48.882;9.210;2022-11-15T11:08:57;14.00;99.90
46335;DHT22;32051;48.882;9.210;2022-11-15T11:11:23;14.00;99.90
46335;DHT22;32051;48.882;9.210;2022-11-15T11:13:49;13.90;99.90
46335;DHT22;32051;48.882;9.210;2022-11-15T11:22:04;13.90;99.90
46335;DHT22;32051;48.882;9.210;2022-11-15T11:24:45;13.90;99.90
46335;DHT22;32051;48.882;9.210;2022-11-15T11:35:29;13.80;99.90
46335;DHT22;32051;48.882;9.210;2022-11-15T11:38:10;13.80;99.90
46335;DHT22;32051;48.882;9.210;2022-11-15T11:40:44;13.90;99.90
46335;DHT22;32051;48.882;9.210;2022-11-15T11:43:26;13.90;99.90
46335;DHT22;32051;48.882;9.210;2022-11-15T11:46:13;14.00;99.90
46335;DHT22;32051;48.882;9.210;2022-11-15T11:49:44;14.10;99.90
46335;DHT22;32051;48.882;9.210;2022-11-15T11:57:04;14.20;99.90
46335;DHT22;32051;48.882;9.210;2022-11-15T11:59:55;14.30;99.90
46335;DHT22;32051;48.882;9.210;2022-11-15T12:02:29;14.40;99.90
46335;DHT22;32051;48.882;9.210;2022-11-15T12:05:22;14.40;99.90
46335;DHT22;32051;48.882;9.210;2022-11-15T12:07:51;14.50;99.90
46335;DHT22;32051;48.882;9.210;2022-11-15T12:10:29;14.50;99.90
46335;DHT22;32051;48.882;9.210;2022-11-15T12:13:06;14.60;99.90
46335;DHT22;32051;48.882;9.210;2022-11-15T12:15:43;14.60;99.90
46335;DHT22;32051;48.882;9.210;2022-11-15T12:18:15;14.80;99.90
46335;DHT22;32051;48.882;9.210;2022-11-15T12:20:56;14.80;99.90
46335;DHT22;32051;48.882;9.210;2022-11-15T12:23:45;14.90;99.90
46335;DHT22;32051;48.882;9.210;2022-11-15T12:26:18;14.90;99.90
46335;DHT22;32051;48.882;9.210;2022-11-15T12:28:52;14.90;99.90
46335;DHT22;32051;48.882;9.210;2022-11-15T12:33:58;14.80;99.90
46335;DHT22;32051;48.882;9.210;2022-11-15T12:41:22;14.70;99.90
46335;DHT22;32051;48.882;9.210;2022-11-15T12:43:49;14.70;99.90
46335;DHT22;32051;48.882;9.210;2022-11-15T12:49:07;14.60;99.90
46335;DHT22;32051;48.882;9.210;2022-11-15T13:02:38;14.50;99.90
46335;DHT22;32051;48.882;9.210;2022-11-15T13:17:54;14.40;99.90
46335;DHT22;32051;48.882;9.210;2022-11-15T13:20:23;14.40;99.90
46335;DHT22;32051;48.882;9.210;2022-11-15T13:23:10;14.40;99.90
46335;DHT22;32051;48.882;9.210;2022-11-15T13:28:32;14.40;99.90
46335;DHT22;32051;48.882;9.210;2022-11-15T13:31:02;14.30;99.90
46335;DHT22;32051;48.882;9.210;2022-11-15T13:33:35;14.30;99.90
46335;DHT22;32051;48.882;9.210;2022-11-15T13:36:08;14.30;99.90
46335;DHT22;32051;48.882;9.210;2022-11-15T13:38:39;14.20;99.90
46335;DHT22;32051;48.882;9.210;2022-11-15T13:41:18;14.20;99.90
46335;DHT22;32051;48.882;9.210;2022-11-15T13:43:44;14.10;99.90
46335;DHT22;32051;48.882;9.210;2022-11-15T13:46:25;14.10;99.90
46335;DHT22;32051;48.882;9.210;2022-11-15T13:49:07;14.10;99.90
46335;DHT22;32051;48.882;9.210;2022-11-15T13:51:38;14.10;99.90
46335;DHT22;32051;48.882;9.210;2022-11-15T13:57:01;14.10;99.90
46335;DHT22;32051;48.882;9.210;2022-11-15T13:59:33;14.10;99.90
46335;DHT22;32051;48.882;9.210;2022-11-15T14:02:03;14.10;99.90
46335;DHT22;32051;48.882;9.210;2022-11-15T14:04:38;14.10;99.90
46335;DHT22;32051;48.882;9.210;2022-11-15T14:07:04;14.10;99.90
46335;DHT22;32051;48.882;9.210;2022-11-15T14:09:38;14.10;99.90
46335;DHT22;32051;48.882;9.210;2022-11-15T14:12:25;14.10;99.90
46335;DHT22;32051;48.882;9.210;2022-11-15T14:14:51;14.10;99.90
46335;DHT22;32051;48.882;9.210;2022-11-15T14:17:37;14.10;99.90
46335;DHT22;32051;48.882;9.210;2022-11-15T14:20:26;14.00;99.90
46335;DHT22;32051;48.882;9.210;2022-11-15T14:22:59;14.00;99.90
46335;DHT22;32051;48.882;9.210;2022-11-15T14:25:26;14.00;99.90
46335;DHT22;32051;48.882;9.210;2022-11-15T14:30:33;13.80;99.90
46335;DHT22;32051;48.882;9.210;2022-11-15T14:32:59;13.70;99.90
46335;DHT22;32051;48.882;9.210;2022-11-15T14:35:25;13.60;99.90
46335;DHT22;32051;48.882;9.210;2022-11-15T14:37:50;13.60;99.90
46335;DHT22;32051;48.882;9.210;2022-11-15T14:40:21;13.50;99.90
46335;DHT22;32051;48.882;9.210;2022-11-15T14:42:48;13.40;99.90
46335;DHT22;32051;48.882;9.210;2022-11-15T14:45:19;13.40;99.90
46335;DHT22;32051;48.882;9.210;2022-11-15T14:47:45;13.30;99.90
46335;DHT22;32051;48.882;9.210;2022-11-15T14:50:16;13.20;99.90
46335;DHT22;32051;48.882;9.210;2022-11-15T14:52:42;13.10;99.90
46335;DHT22;32051;48.882;9.210;2022-11-15T14:55:32;13.00;99.90
46335;DHT22;32051;48.882;9.210;2022-11-15T14:58:04;13.00;99.90
46335;DHT22;32051;48.882;9.210;2022-11-15T15:00:31;13.00;99.90
46335;DHT22;32051;48.882;9.210;2022-11-15T15:02:57;12.90;99.90
46335;DHT22;32051;48.882;9.210;2022-11-15T15:05:32;12.90;99.90
46335;DHT22;32051;48.882;9.210;2022-11-15T15:07:58;12.90;99.90
46335;DHT22;32051;48.882;9.210;2022-11-15T15:10:25;12.90;99.90
46335;DHT22;32051;48.882;9.210;2022-11-15T15:12:52;12.90;99.90
46335;DHT22;32051;48.882;9.210;2022-11-15T15:15:23;12.90;99.90
46335;DHT22;32051;48.882;9.210;2022-11-15T15:17:49;12.90;99.90
46335;DHT22;32051;48.882;9.210;2022-11-15T15:20:15;12.90;99.90
46335;DHT22;32051;48.882;9.210;2022-11-15T15:22:41;12.90;99.90
46335;DHT22;32051;48.882;9.210;2022-11-15T15:25:20;12.90;99.90
46335;DHT22;32051;48.882;9.210;2022-11-15T15:27:46;12.90;99.90
46335;DHT22;32051;48.882;9.210;2022-11-15T15:30:12;12.90;99.90
46335;DHT22;32051;48.882;9.210;2022-11-15T15:32:38;12.90;99.90
46335;DHT22;32051;48.882;9.210;2022-11-15T15:35:04;12.90;99.90
46335;DHT22;32051;48.882;9.210;2022-11-15T15:37:30;12.80;99.90
46335;DHT22;32051;48.882;9.210;2022-11-15T15:39:58;12.80;99.90
46335;DHT22;32051;48.882;9.210;2022-11-15T15:42:25;12.80;99.90
46335;DHT22;32051;48.882;9.210;2022-11-15T15:44:51;12.70;99.90
46335;DHT22;32051;48.882;9.210;2022-11-15T15:47:21;12.70;99.90
46335;DHT22;32051;48.882;9.210;2022-11-15T15:49:47;12.60;99.90
46335;DHT22;32051;48.882;9.210;2022-11-15T15:52:13;12.60;99.90
46335;DHT22;32051;48.882;9.210;2022-11-15T15:54:40;12.60;99.90
46335;DHT22;32051;48.882;9.210;2022-11-15T15:57:07;12.50;99.90
46335;DHT22;32051;48.882;9.210;2022-11-15T15:59:33;12.50;99.90
46335;DHT22;32051;48.882;9.210;2022-11-15T16:01:58;12.50;99.90
46335;DHT22;32051;48.882;9.210;2022-11-15T16:04:24;12.50;99.90
46335;DHT22;32051;48.882;9.210;2022-11-15T16:06:50;12.40;99.90
46335;DHT22;32051;48.882;9.210;2022-11-15T16:09:18;12.40;99.90
46335;DHT22;32051;48.882;9.210;2022-11-15T16:12:04;12.40;99.90
46335;DHT22;32051;48.882;9.210;2022-11-15T16:14:31;12.40;99.90
46335;DHT22;32051;48.882;9.210;2022-11-15T16:16:57;12.40;99.90
46335;DHT22;32051;48.882;9.210;2022-11-15T16:19:23;12.40;99.90
46335;DHT22;32051;48.882;9.210;2022-11-15T16:21:49;12.40;99.90
46335;DHT22;32051;48.882;9.210;2022-11-15T16:24:15;12.40;99.90
46335;DHT22;32051;48.882;9.210;2022-11-15T16:26:40;12.40;99.90
46335;DHT22;32051;48.882;9.210;2022-11-15T16:29:08;12.40;99.90
46335;DHT22;32051;48.882;9.210;2022-11-15T16:31:34;12.40;99.90
46335;DHT22;32051;48.882;9.210;2022-11-15T16:34:00;12.40;99.90
46335;DHT22;32051;48.882;9.210;2022-11-15T16:36:26;12.40;99.90
46335;DHT22;32051;48.882;9.210;2022-11-15T16:38:52;12.40;99.90
46335;DHT22;32051;48.882;9.210;2022-11-15T16:41:18;12.40;99.90
46335;DHT22;32051;48.882;9.210;2022-11-15T16:43:47;12.40;99.90
46335;DHT22;32051;48.882;9.210;2022-11-15T16:46:18;12.40;99.90
46335;DHT22;32051;48.882;9.210;2022-11-15T16:48:44;12.40;99.90
46335;DHT22;32051;48.882;9.210;2022-11-15T16:51:10;12.40;99.90
46335;DHT22;32051;48.882;9.210;2022-11-15T16:53:35;12.50;99.90
46335;DHT22;32051;48.882;9.210;2022-11-15T16:56:01;12.50;99.90
46335;DHT22;32051;48.882;9.210;2022-11-15T16:58:27;12.50;99.90
46335;DHT22;32051;48.882;9.210;2022-11-15T17:00:54;12.50;99.90
46335;DHT22;32051;48.882;9.210;2022-11-15T17:03:23;12.40;99.90
46335;DHT22;32051;48.882;9.210;2022-11-15T17:05:50;12.40;99.90
46335;DHT22;32051;48.882;9.210;2022-11-15T17:08:16;12.40;99.90
46335;DHT22;32051;48.882;9.210;2022-11-15T17:10:41;12.40;99.90
46335;DHT22;32051;48.882;9.210;2022-11-15T17:13:11;12.40;99.90
46335;DHT22;32051;48.882;9.210;2022-11-15T17:15:38;12.40;99.90
46335;DHT22;32051;48.882;9.210;2022-11-15T17:18:04;12.40;99.90
46335;DHT22;32051;48.882;9.210;2022-11-15T17:20:29;12.40;99.90
46335;DHT22;32051;48.882;9.210;2022-11-15T17:22:55;12.40;99.90
46335;DHT22;32051;48.882;9.210;2022-11-15T17:25:21;12.40;99.90
46335;DHT22;32051;48.882;9.210;2022-11-15T17:27:46;12.40;99.90
46335;DHT22;32051;48.882;9.210;2022-11-15T17:30:13;12.40;99.90
46335;DHT22;32051;48.882;9.210;2022-11-15T17:32:43;12.40;99.90
46335;DHT22;32051;48.882;9.210;2022-11-15T17:35:10;12.40;99.90
46335;DHT22;32051;48.882;9.210;2022-11-15T17:37:37;12.40;99.90
46335;DHT22;32051;48.882;9.210;2022-11-15T17:40:03;12.40;99.90
46335;DHT22;32051;48.882;9.210;2022-11-15T17:42:29;12.40;99.90
46335;DHT22;32051;48.882;9.210;2022-11-15T17:44:55;12.40;99.90
46335;DHT22;32051;48.882;9.210;2022-11-15T17:47:20;12.40;99.90
46335;DHT22;32051;48.882;9.210;2022-11-15T17:49:46;12.40;99.90
46335;DHT22;32051;48.882;9.210;2022-11-15T17:52:12;12.40;99.90
46335;DHT22;32051;48.882;9.210;2022-11-15T17:54:37;12.40;99.90
46335;DHT22;32051;48.882;9.210;2022-11-15T17:57:03;12.40;99.90
46335;DHT22;32051;48.882;9.210;2022-11-15T17:59:28;12.40;99.90
46335;DHT22;32051;48.882;9.210;2022-11-15T18:01:54;12.40;99.90
46335;DHT22;32051;48.882;9.210;2022-11-15T18:04:20;12.40;99.90
46335;DHT22;32051;48.882;9.210;2022-11-15T18:06:46;12.40;99.90
46335;DHT22;32051;48.882;9.210;2022-11-15T18:09:11;12.40;99.90
46335;DHT22;32051;48.882;9.210;2022-11-15T18:11:40;12.40;99.90
46335;DHT22;32051;48.882;9.210;2022-11-15T18:14:08;12.40;99.90
46335;DHT22;32051;48.882;9.210;2022-11-15T18:16:36;12.40;99.90
46335;DHT22;32051;48.882;9.210;2022-11-15T18:19:03;12.40;99.90
46335;DHT22;32051;48.882;9.210;2022-11-15T18:21:33;12.40;99.90
46335;DHT22;32051;48.882;9.210;2022-11-15T18:24:02;12.40;99.90
46335;DHT22;32051;48.882;9.210;2022-11-15T18:26:29;12.40;99.90
46335;DHT22;32051;48.882;9.210;2022-11-15T18:29:00;12.30;99.90
46335;DHT22;32051;48.882;9.210;2022-11-15T18:31:28;12.30;99.90
46335;DHT22;32051;48.882;9.210;2022-11-15T18:33:56;12.30;99.90
46335;DHT22;32051;48.882;9.210;2022-11-15T18:36:24;12.30;99.90
46335;DHT22;32051;48.882;9.210;2022-11-15T18:38:54;12.30;99.90
46335;DHT22;32051;48.882;9.210;2022-11-15T18:41:20;12.30;99.90
46335;DHT22;32051;48.882;9.210;2022-11-15T18:43:50;12.30;99.90
46335;DHT22;32051;48.882;9.210;2022-11-15T18:46:18;12.30;99.90